MST,Max TemperatureF,Mean TemperatureF,Min TemperatureF,Max Dew PointF,MeanDew PointF,Min DewpointF,Max Humidity, Mean Humidity, Min Humidity, Max Sea Level PressureIn, Mean Sea Level PressureIn, Min Sea Level PressureIn, Max VisibilityMiles, Mean VisibilityMiles, Min VisibilityMiles, Max Wind SpeedMPH, Mean Wind SpeedMPH, Max Gust SpeedMPH,PrecipitationIn, CloudCover, Events, WindDirDegrees
2014-2-1,36,26,15,24,19,12,92,65,38,30.01,29.86,29.76,10,8,1,14,5,17,0.02,4,Snow,80
2014-2-2,35,21,6,18,11,2,84,64,43,30.14,30.04,29.93,10,10,10,20,6,25,0.00,1,,229
2014-2-3,31,23,15,21,18,12,92,73,53,29.92,29.84,29.78,10,6,1,20,4,23,0.01,7,Snow,239
2014-2-4,37,28,19,22,18,14,96,68,40,30.03,29.94,29.87,10,10,8,26,12,36,T,6,Snow,239
2014-2-5,38,30,21,24,20,18,88,68,47,30.04,30.00,29.92,10,10,5,14,4,17,T,6,Snow,234
2014-2-6,34,25,16,26,23,13,88,79,69,30.04,29.96,29.89,10,7,2,20,8,24,0.02,6,Snow,225
2014-2-7,35,32,28,29,27,25,92,81,70,30.14,30.02,29.88,10,8,0,20,11,24,0.07,8,Fog-Snow,232
2014-2-8,53,40,27,33,28,25,92,67,42,30.19,30.14,30.08,10,10,10,20,8,24,0.00,3,,236
2014-2-9,54,41,27,33,28,25,92,64,35,30.17,30.07,29.99,10,10,10,22,8,33,0.00,0,,239
2014-2-10,52,38,24,30,25,22,92,66,39,30.07,30.00,29.94,10,10,10,17,5,26,T,1,,278
2014-2-11,53,38,23,25,16,1,72,43,13,30.18,30.05,29.96,10,10,10,15,6,19,0.00,0,,57
2014-2-12,62,40,18,24,17,12,73,47,21,30.28,30.18,30.09,10,10,10,18,3,30,0.00,0,,357
2014-2-13,65,46,27,25,19,12,69,41,13,30.22,30.09,30.00,10,10,10,20,5,24,0.00,0,,230
2014-2-14,66,46,26,28,18,13,75,44,13,30.22,30.12,30.05,10,10,10,16,4,25,0.00,0,,254
2014-2-15,64,45,26,28,15,8,75,44,12,30.16,30.09,29.97,10,10,10,25,6,35,0.00,0,,233
2014-2-16,57,43,28,22,18,14,63,43,23,30.15,30.04,29.97,10,10,10,23,10,31,0.00,1,,226
2014-2-17,59,39,19,19,15,6,74,44,13,30.26,30.12,30.03,10,10,10,24,5,33,0.00,0,,189
2014-2-18,60,43,26,25,18,8,75,44,13,30.10,30.01,29.95,10,10,9,18,5,23,0.00,0,Rain,234
2014-2-19,58,42,25,20,12,-2,68,41,14,29.95,29.84,29.71,10,10,10,37,11,47,0.00,0,Rain,241
2014-2-20,46,33,20,10,4,0,62,39,16,30.20,30.08,29.85,10,10,10,18,6,25,0.00,0,,71
2014-2-21,55,37,19,13,10,6,62,40,18,30.15,30.03,29.94,10,10,10,17,5,23,0.00,0,,236
2014-2-22,56,39,21,16,12,8,68,43,18,30.01,29.95,29.89,10,10,10,20,4,25,0.00,0,,234
2014-2-23,56,39,22,16,14,12,68,43,18,30.11,30.03,29.97,10,10,10,21,5,28,0.00,0,,214
2014-2-24,59,40,21,21,15,10,71,44,16,30.14,30.06,30.00,10,10,10,20,4,25,0.00,0,,222
2014-2-25,57,41,25,24,19,16,74,47,19,30.08,30.01,29.96,10,10,10,23,7,28,0.00,0,,222
2014-2-26,56,41,25,30,23,17,81,52,22,30.06,29.97,29.89,10,10,10,21,7,25,0.00,2,,234
2014-2-27,51,40,29,34,29,25,85,62,39,29.90,29.83,29.70,10,10,10,39,15,53,T,2,Rain,228
2014-2-28,50,42,33,40,34,29,96,75,53,30.00,29.85,29.65,10,10,4,32,11,43,0.31,6,Rain-Snow,227